sensor_id;sensor_type;location;lat;lon;timestamp;P1;durP1;ratioP1;P2;durP2;ratioP2
50547;SDS011;38013;48.810;8.818;2022-10-16T00:01:24;2.97;;;0.77;;
50547;SDS011;38013;48.810;8.818;2022-10-16T00:03:54;2.35;;;0.80;;
50547;SDS011;38013;48.810;8.818;2022-10-16T00:06:21;2.05;;;0.80;;
50547;SDS011;38013;48.810;8.818;2022-10-16T00:08:48;1.80;;;0.60;;
50547;SDS011;38013;48.810;8.818;2022-10-16T00:11:19;4.05;;;0.80;;
50547;SDS011;38013;48.810;8.818;2022-10-16T00:13:48;2.70;;;0.70;;
50547;SDS011;38013;48.810;8.818;2022-10-16T00:16:15;5.00;;;0.73;;
50547;SDS011;38013;48.810;8.818;2022-10-16T00:18:42;2.38;;;0.85;;
50547;SDS011;38013;48.810;8.818;2022-10-16T00:21:12;2.33;;;0.88;;
50547;SDS011;38013;48.810;8.818;2022-10-16T00:23:44;2.40;;;0.73;;
50547;SDS011;38013;48.810;8.818;2022-10-16T00:26:11;3.33;;;0.70;;
50547;SDS011;38013;48.810;8.818;2022-10-16T00:28:44;1.38;;;0.80;;
50547;SDS011;38013;48.810;8.818;2022-10-16T00:31:12;4.07;;;0.80;;
50547;SDS011;38013;48.810;8.818;2022-10-16T00:33:39;1.92;;;0.57;;
50547;SDS011;38013;48.810;8.818;2022-10-16T00:36:05;2.60;;;0.80;;
50547;SDS011;38013;48.810;8.818;2022-10-16T00:38:34;2.17;;;0.57;;
50547;SDS011;38013;48.810;8.818;2022-10-16T00:41:00;1.60;;;0.70;;
50547;SDS011;38013;48.810;8.818;2022-10-16T00:43:45;1.85;;;0.70;;
50547;SDS011;38013;48.810;8.818;2022-10-16T00:46:19;1.67;;;0.80;;
50547;SDS011;38013;48.810;8.818;2022-10-16T00:48:58;2.38;;;0.70;;
50547;SDS011;38013;48.810;8.818;2022-10-16T00:51:33;1.75;;;0.70;;
50547;SDS011;38013;48.810;8.818;2022-10-16T00:54:07;2.28;;;0.77;;
50547;SDS011;38013;48.810;8.818;2022-10-16T00:56:38;2.78;;;0.70;;
50547;SDS011;38013;48.810;8.818;2022-10-16T00:59:06;1.25;;;0.68;;
50547;SDS011;38013;48.810;8.818;2022-10-16T01:02:05;2.13;;;0.90;;
50547;SDS011;38013;48.810;8.818;2022-10-16T01:04:37;6.18;;;1.00;;
50547;SDS011;38013;48.810;8.818;2022-10-16T01:07:14;1.85;;;0.70;;
50547;SDS011;38013;48.810;8.818;2022-10-16T01:16:11;1.70;;;0.80;;
50547;SDS011;38013;48.810;8.818;2022-10-16T01:19:18;2.70;;;0.70;;
50547;SDS011;38013;48.810;8.818;2022-10-16T01:22:06;1.42;;;0.70;;
50547;SDS011;38013;48.810;8.818;2022-10-16T01:24:48;2.45;;;0.70;;
50547;SDS011;38013;48.810;8.818;2022-10-16T01:32:34;1.45;;;0.63;;
50547;SDS011;38013;48.810;8.818;2022-10-16T01:35:26;1.23;;;0.60;;
50547;SDS011;38013;48.810;8.818;2022-10-16T01:38:06;2.00;;;0.60;;
50547;SDS011;38013;48.810;8.818;2022-10-16T01:40:39;1.30;;;0.60;;
50547;SDS011;38013;48.810;8.818;2022-10-16T01:43:14;1.30;;;0.60;;
50547;SDS011;38013;48.810;8.818;2022-10-16T01:45:45;0.90;;;0.50;;
50547;SDS011;38013;48.810;8.818;2022-10-16T01:48:16;1.25;;;0.60;;
50547;SDS011;38013;48.810;8.818;2022-10-16T01:50:44;1.40;;;0.70;;
50547;SDS011;38013;48.810;8.818;2022-10-16T01:53:20;2.20;;;0.70;;
50547;SDS011;38013;48.810;8.818;2022-10-16T01:55:49;2.83;;;0.80;;
50547;SDS011;38013;48.810;8.818;2022-10-16T01:58:17;5.22;;;0.65;;
50547;SDS011;38013;48.810;8.818;2022-10-16T02:00:45;3.00;;;1.00;;
50547;SDS011;38013;48.810;8.818;2022-10-16T02:03:12;3.63;;;0.60;;
50547;SDS011;38013;48.810;8.818;2022-10-16T02:08:15;1.45;;;0.70;;
50547;SDS011;38013;48.810;8.818;2022-10-16T02:10:41;1.33;;;0.73;;
50547;SDS011;38013;48.810;8.818;2022-10-16T02:13:09;5.57;;;0.70;;
50547;SDS011;38013;48.810;8.818;2022-10-16T02:15:43;2.50;;;0.70;;
50547;SDS011;38013;48.810;8.818;2022-10-16T02:18:09;3.95;;;0.70;;
50547;SDS011;38013;48.810;8.818;2022-10-16T02:20:38;3.17;;;0.85;;
50547;SDS011;38013;48.810;8.818;2022-10-16T02:23:31;1.70;;;0.60;;
50547;SDS011;38013;48.810;8.818;2022-10-16T02:26:07;0.93;;;0.65;;
50547;SDS011;38013;48.810;8.818;2022-10-16T02:28:45;1.63;;;0.63;;
50547;SDS011;38013;48.810;8.818;2022-10-16T02:31:19;1.80;;;0.75;;
50547;SDS011;38013;48.810;8.818;2022-10-16T02:33:52;3.15;;;1.00;;
50547;SDS011;38013;48.810;8.818;2022-10-16T02:36:20;4.53;;;0.75;;
50547;SDS011;38013;48.810;8.818;2022-10-16T02:38:46;1.50;;;0.73;;
50547;SDS011;38013;48.810;8.818;2022-10-16T02:41:12;1.17;;;0.70;;
50547;SDS011;38013;48.810;8.818;2022-10-16T02:43:39;5.90;;;0.80;;
50547;SDS011;38013;48.810;8.818;2022-10-16T02:46:05;3.78;;;0.70;;
50547;SDS011;38013;48.810;8.818;2022-10-16T02:48:31;3.55;;;0.93;;
50547;SDS011;38013;48.810;8.818;2022-10-16T02:50:56;2.65;;;0.88;;
50547;SDS011;38013;48.810;8.818;2022-10-16T02:53:22;3.03;;;0.70;;
50547;SDS011;38013;48.810;8.818;2022-10-16T02:55:48;3.95;;;1.00;;
50547;SDS011;38013;48.810;8.818;2022-10-16T02:58:14;1.27;;;0.70;;
50547;SDS011;38013;48.810;8.818;2022-10-16T03:00:39;2.70;;;0.80;;
50547;SDS011;38013;48.810;8.818;2022-10-16T03:03:05;1.25;;;0.70;;
50547;SDS011;38013;48.810;8.818;2022-10-16T03:05:31;4.30;;;0.90;;
50547;SDS011;38013;48.810;8.818;2022-10-16T03:07:57;2.95;;;0.80;;
50547;SDS011;38013;48.810;8.818;2022-10-16T03:10:25;2.10;;;0.85;;
50547;SDS011;38013;48.810;8.818;2022-10-16T03:12:50;4.35;;;0.98;;
50547;SDS011;38013;48.810;8.818;2022-10-16T03:15:16;2.15;;;0.70;;
50547;SDS011;38013;48.810;8.818;2022-10-16T03:17:42;3.72;;;1.00;;
50547;SDS011;38013;48.810;8.818;2022-10-16T03:20:08;3.38;;;1.05;;
50547;SDS011;38013;48.810;8.818;2022-10-16T03:22:34;3.83;;;0.82;;
50547;SDS011;38013;48.810;8.818;2022-10-16T03:25:00;3.08;;;0.75;;
50547;SDS011;38013;48.810;8.818;2022-10-16T03:27:26;5.80;;;0.85;;
50547;SDS011;38013;48.810;8.818;2022-10-16T03:29:52;1.88;;;0.70;;
50547;SDS011;38013;48.810;8.818;2022-10-16T03:32:18;3.95;;;0.80;;
50547;SDS011;38013;48.810;8.818;2022-10-16T03:34:45;5.47;;;0.80;;
50547;SDS011;38013;48.810;8.818;2022-10-16T03:37:10;5.22;;;0.85;;
50547;SDS011;38013;48.810;8.818;2022-10-16T03:39:37;4.15;;;0.70;;
50547;SDS011;38013;48.810;8.818;2022-10-16T03:42:03;1.92;;;0.98;;
50547;SDS011;38013;48.810;8.818;2022-10-16T03:44:29;3.22;;;1.20;;
50547;SDS011;38013;48.810;8.818;2022-10-16T03:46:55;3.72;;;0.90;;
50547;SDS011;38013;48.810;8.818;2022-10-16T03:49:21;2.90;;;0.98;;
50547;SDS011;38013;48.810;8.818;2022-10-16T03:51:47;1.52;;;0.80;;
50547;SDS011;38013;48.810;8.818;2022-10-16T03:54:12;2.55;;;1.00;;
50547;SDS011;38013;48.810;8.818;2022-10-16T03:56:38;3.60;;;0.93;;
50547;SDS011;38013;48.810;8.818;2022-10-16T03:59:04;2.55;;;0.88;;
50547;SDS011;38013;48.810;8.818;2022-10-16T04:01:30;3.40;;;1.00;;
50547;SDS011;38013;48.810;8.818;2022-10-16T04:03:55;4.60;;;1.00;;
50547;SDS011;38013;48.810;8.818;2022-10-16T04:06:21;1.92;;;0.90;;
50547;SDS011;38013;48.810;8.818;2022-10-16T04:08:47;2.75;;;0.98;;
50547;SDS011;38013;48.810;8.818;2022-10-16T04:11:13;2.78;;;0.73;;
50547;SDS011;38013;48.810;8.818;2022-10-16T04:13:38;11.10;;;1.13;;
50547;SDS011;38013;48.810;8.818;2022-10-16T04:16:04;2.78;;;0.90;;
50547;SDS011;38013;48.810;8.818;2022-10-16T04:18:30;1.65;;;0.70;;
50547;SDS011;38013;48.810;8.818;2022-10-16T04:20:56;3.80;;;1.00;;
50547;SDS011;38013;48.810;8.818;2022-10-16T04:23:22;2.47;;;1.08;;
50547;SDS011;38013;48.810;8.818;2022-10-16T04:25:48;4.20;;;0.90;;
50547;SDS011;38013;48.810;8.818;2022-10-16T04:28:14;6.85;;;1.17;;
50547;SDS011;38013;48.810;8.818;2022-10-16T04:30:40;4.78;;;0.93;;
50547;SDS011;38013;48.810;8.818;2022-10-16T04:33:05;2.08;;;0.80;;
50547;SDS011;38013;48.810;8.818;2022-10-16T04:35:34;2.50;;;0.90;;
50547;SDS011;38013;48.810;8.818;2022-10-16T04:37:59;3.33;;;0.88;;
50547;SDS011;38013;48.810;8.818;2022-10-16T04:40:25;4.90;;;0.80;;
50547;SDS011;38013;48.810;8.818;2022-10-16T04:42:51;3.45;;;0.98;;
50547;SDS011;38013;48.810;8.818;2022-10-16T04:45:17;2.92;;;1.23;;
50547;SDS011;38013;48.810;8.818;2022-10-16T04:47:43;2.83;;;0.98;;
50547;SDS011;38013;48.810;8.818;2022-10-16T04:50:09;6.63;;;1.10;;
50547;SDS011;38013;48.810;8.818;2022-10-16T04:52:34;2.67;;;0.80;;
50547;SDS011;38013;48.810;8.818;2022-10-16T04:55:01;2.35;;;0.90;;
50547;SDS011;38013;48.810;8.818;2022-10-16T04:57:28;6.00;;;1.20;;
50547;SDS011;38013;48.810;8.818;2022-10-16T04:59:55;3.72;;;1.38;;
50547;SDS011;38013;48.810;8.818;2022-10-16T05:02:21;3.92;;;1.63;;
50547;SDS011;38013;48.810;8.818;2022-10-16T05:04:46;1.45;;;0.82;;
50547;SDS011;38013;48.810;8.818;2022-10-16T05:07:12;2.85;;;1.10;;
50547;SDS011;38013;48.810;8.818;2022-10-16T05:09:38;3.40;;;0.90;;
50547;SDS011;38013;48.810;8.818;2022-10-16T05:12:04;3.22;;;0.82;;
50547;SDS011;38013;48.810;8.818;2022-10-16T05:14:30;5.10;;;0.80;;
50547;SDS011;38013;48.810;8.818;2022-10-16T05:16:56;2.10;;;0.80;;
50547;SDS011;38013;48.810;8.818;2022-10-16T05:19:22;2.72;;;0.90;;
50547;SDS011;38013;48.810;8.818;2022-10-16T05:21:47;2.45;;;0.80;;
50547;SDS011;38013;48.810;8.818;2022-10-16T05:24:13;3.00;;;0.80;;
50547;SDS011;38013;48.810;8.818;2022-10-16T05:26:39;1.67;;;0.90;;
50547;SDS011;38013;48.810;8.818;2022-10-16T05:29:05;2.17;;;0.80;;
50547;SDS011;38013;48.810;8.818;2022-10-16T05:31:30;1.48;;;0.65;;
50547;SDS011;38013;48.810;8.818;2022-10-16T05:33:59;4.50;;;0.95;;
50547;SDS011;38013;48.810;8.818;2022-10-16T05:36:25;3.08;;;1.00;;
50547;SDS011;38013;48.810;8.818;2022-10-16T05:38:51;2.10;;;0.85;;
50547;SDS011;38013;48.810;8.818;2022-10-16T05:41:18;3.17;;;0.88;;
50547;SDS011;38013;48.810;8.818;2022-10-16T05:43:46;3.40;;;0.90;;
50547;SDS011;38013;48.810;8.818;2022-10-16T05:46:13;7.18;;;1.00;;
50547;SDS011;38013;48.810;8.818;2022-10-16T05:48:40;1.92;;;1.00;;
50547;SDS011;38013;48.810;8.818;2022-10-16T05:51:06;2.17;;;0.82;;
50547;SDS011;38013;48.810;8.818;2022-10-16T05:53:36;6.90;;;1.30;;
50547;SDS011;38013;48.810;8.818;2022-10-16T05:56:04;1.77;;;0.98;;
50547;SDS011;38013;48.810;8.818;2022-10-16T05:58:33;2.60;;;0.80;;
50547;SDS011;38013;48.810;8.818;2022-10-16T06:01:02;5.85;;;1.20;;
50547;SDS011;38013;48.810;8.818;2022-10-16T06:03:40;4.80;;;1.10;;
50547;SDS011;38013;48.810;8.818;2022-10-16T06:06:14;3.75;;;0.95;;
50547;SDS011;38013;48.810;8.818;2022-10-16T06:08:43;4.15;;;1.20;;
50547;SDS011;38013;48.810;8.818;2022-10-16T06:11:14;7.07;;;1.73;;
50547;SDS011;38013;48.810;8.818;2022-10-16T06:13:42;5.57;;;1.20;;
50547;SDS011;38013;48.810;8.818;2022-10-16T06:16:08;5.20;;;1.70;;
50547;SDS011;38013;48.810;8.818;2022-10-16T06:18:35;4.15;;;1.20;;
50547;SDS011;38013;48.810;8.818;2022-10-16T06:21:06;3.38;;;1.25;;
50547;SDS011;38013;48.810;8.818;2022-10-16T06:23:41;4.00;;;1.30;;
50547;SDS011;38013;48.810;8.818;2022-10-16T06:26:08;2.80;;;1.30;;
50547;SDS011;38013;48.810;8.818;2022-10-16T06:28:36;2.33;;;1.08;;
50547;SDS011;38013;48.810;8.818;2022-10-16T06:31:03;2.25;;;1.10;;
50547;SDS011;38013;48.810;8.818;2022-10-16T06:33:30;3.72;;;1.10;;
50547;SDS011;38013;48.810;8.818;2022-10-16T06:36:02;2.65;;;0.98;;
50547;SDS011;38013;48.810;8.818;2022-10-16T06:38:39;4.20;;;1.00;;
50547;SDS011;38013;48.810;8.818;2022-10-16T06:41:06;3.58;;;0.98;;
50547;SDS011;38013;48.810;8.818;2022-10-16T06:43:33;2.67;;;1.02;;
50547;SDS011;38013;48.810;8.818;2022-10-16T06:46:02;3.08;;;1.08;;
50547;SDS011;38013;48.810;8.818;2022-10-16T06:48:30;2.78;;;0.98;;
50547;SDS011;38013;48.810;8.818;2022-10-16T06:50:57;7.72;;;1.30;;
50547;SDS011;38013;48.810;8.818;2022-10-16T06:53:39;3.30;;;0.95;;
50547;SDS011;38013;48.810;8.818;2022-10-16T06:58:39;4.47;;;1.17;;
50547;SDS011;38013;48.810;8.818;2022-10-16T07:01:05;3.60;;;1.38;;
50547;SDS011;38013;48.810;8.818;2022-10-16T07:03:33;3.35;;;1.23;;
50547;SDS011;38013;48.810;8.818;2022-10-16T07:06:02;2.97;;;1.08;;
50547;SDS011;38013;48.810;8.818;2022-10-16T07:08:33;1.42;;;0.85;;
50547;SDS011;38013;48.810;8.818;2022-10-16T07:11:01;2.33;;;1.10;;
50547;SDS011;38013;48.810;8.818;2022-10-16T07:13:35;1.95;;;1.00;;
50547;SDS011;38013;48.810;8.818;2022-10-16T07:16:16;2.72;;;0.98;;
50547;SDS011;38013;48.810;8.818;2022-10-16T07:18:44;2.85;;;0.73;;
50547;SDS011;38013;48.810;8.818;2022-10-16T07:21:15;3.78;;;0.98;;
50547;SDS011;38013;48.810;8.818;2022-10-16T07:23:44;4.38;;;1.25;;
50547;SDS011;38013;48.810;8.818;2022-10-16T07:26:10;2.60;;;0.90;;
50547;SDS011;38013;48.810;8.818;2022-10-16T07:28:36;5.40;;;1.10;;
50547;SDS011;38013;48.810;8.818;2022-10-16T07:31:07;3.55;;;1.40;;
50547;SDS011;38013;48.810;8.818;2022-10-16T07:33:36;3.50;;;1.05;;
50547;SDS011;38013;48.810;8.818;2022-10-16T07:36:03;3.88;;;1.33;;
50547;SDS011;38013;48.810;8.818;2022-10-16T07:38:30;2.35;;;1.10;;
50547;SDS011;38013;48.810;8.818;2022-10-16T07:41:00;4.95;;;1.08;;
50547;SDS011;38013;48.810;8.818;2022-10-16T07:43:30;2.97;;;1.10;;
50547;SDS011;38013;48.810;8.818;2022-10-16T07:45:56;6.50;;;1.23;;
50547;SDS011;38013;48.810;8.818;2022-10-16T07:48:23;2.63;;;1.05;;
50547;SDS011;38013;48.810;8.818;2022-10-16T07:50:52;10.05;;;1.30;;
50547;SDS011;38013;48.810;8.818;2022-10-16T07:53:22;3.28;;;1.17;;
50547;SDS011;38013;48.810;8.818;2022-10-16T07:55:48;3.85;;;1.05;;
50547;SDS011;38013;48.810;8.818;2022-10-16T07:58:13;3.17;;;1.20;;
50547;SDS011;38013;48.810;8.818;2022-10-16T08:00:39;5.65;;;1.33;;
50547;SDS011;38013;48.810;8.818;2022-10-16T08:03:05;3.05;;;1.17;;
50547;SDS011;38013;48.810;8.818;2022-10-16T08:05:31;3.70;;;1.17;;
50547;SDS011;38013;48.810;8.818;2022-10-16T08:07:58;2.33;;;1.20;;
50547;SDS011;38013;48.810;8.818;2022-10-16T08:10:25;5.60;;;0.80;;
50547;SDS011;38013;48.810;8.818;2022-10-16T08:12:53;1.20;;;0.75;;
50547;SDS011;38013;48.810;8.818;2022-10-16T08:15:19;2.50;;;1.17;;
50547;SDS011;38013;48.810;8.818;2022-10-16T08:17:58;2.00;;;0.98;;
50547;SDS011;38013;48.810;8.818;2022-10-16T08:20:27;2.42;;;1.00;;
50547;SDS011;38013;48.810;8.818;2022-10-16T08:22:54;2.97;;;1.20;;
50547;SDS011;38013;48.810;8.818;2022-10-16T08:25:23;5.03;;;1.40;;
50547;SDS011;38013;48.810;8.818;2022-10-16T08:27:49;3.28;;;1.25;;
50547;SDS011;38013;48.810;8.818;2022-10-16T08:30:16;4.70;;;1.27;;
50547;SDS011;38013;48.810;8.818;2022-10-16T08:32:43;2.92;;;1.10;;
50547;SDS011;38013;48.810;8.818;2022-10-16T08:35:09;4.18;;;1.02;;
50547;SDS011;38013;48.810;8.818;2022-10-16T08:37:37;2.45;;;1.08;;
50547;SDS011;38013;48.810;8.818;2022-10-16T08:40:04;2.75;;;1.00;;
50547;SDS011;38013;48.810;8.818;2022-10-16T08:45:38;1.50;;;0.80;;
50547;SDS011;38013;48.810;8.818;2022-10-16T08:48:39;3.13;;;1.10;;
50547;SDS011;38013;48.810;8.818;2022-10-16T08:51:22;1.88;;;1.00;;
50547;SDS011;38013;48.810;8.818;2022-10-16T08:56:24;3.42;;;1.20;;
50547;SDS011;38013;48.810;8.818;2022-10-16T08:58:51;2.47;;;1.10;;
50547;SDS011;38013;48.810;8.818;2022-10-16T09:01:19;3.20;;;1.08;;
50547;SDS011;38013;48.810;8.818;2022-10-16T09:03:54;3.10;;;0.73;;
50547;SDS011;38013;48.810;8.818;2022-10-16T09:06:39;3.22;;;1.00;;
50547;SDS011;38013;48.810;8.818;2022-10-16T09:15:07;0.98;;;0.65;;
50547;SDS011;38013;48.810;8.818;2022-10-16T09:20:53;2.83;;;0.90;;
50547;SDS011;38013;48.810;8.818;2022-10-16T09:23:29;4.75;;;0.75;;
50547;SDS011;38013;48.810;8.818;2022-10-16T09:25:59;4.32;;;0.80;;
50547;SDS011;38013;48.810;8.818;2022-10-16T09:28:26;3.83;;;0.90;;
50547;SDS011;38013;48.810;8.818;2022-10-16T09:30:52;2.00;;;1.00;;
50547;SDS011;38013;48.810;8.818;2022-10-16T09:33:19;2.78;;;0.93;;
50547;SDS011;38013;48.810;8.818;2022-10-16T09:35:50;4.82;;;1.40;;
50547;SDS011;38013;48.810;8.818;2022-10-16T09:38:22;4.63;;;1.13;;
50547;SDS011;38013;48.810;8.818;2022-10-16T09:41:01;6.30;;;1.17;;
50547;SDS011;38013;48.810;8.818;2022-10-16T09:46:34;4.60;;;0.80;;
50547;SDS011;38013;48.810;8.818;2022-10-16T09:49:02;2.03;;;0.90;;
50547;SDS011;38013;48.810;8.818;2022-10-16T09:51:34;3.97;;;1.00;;
50547;SDS011;38013;48.810;8.818;2022-10-16T09:54:13;3.28;;;0.80;;
50547;SDS011;38013;48.810;8.818;2022-10-16T09:56:42;2.00;;;0.80;;
50547;SDS011;38013;48.810;8.818;2022-10-16T09:59:14;2.63;;;0.85;;
50547;SDS011;38013;48.810;8.818;2022-10-16T10:01:49;2.67;;;0.90;;
50547;SDS011;38013;48.810;8.818;2022-10-16T10:04:17;1.63;;;0.80;;
50547;SDS011;38013;48.810;8.818;2022-10-16T10:09:23;6.30;;;1.00;;
50547;SDS011;38013;48.810;8.818;2022-10-16T10:12:04;1.50;;;0.80;;
50547;SDS011;38013;48.810;8.818;2022-10-16T10:14:32;1.90;;;1.00;;
50547;SDS011;38013;48.810;8.818;2022-10-16T10:17:16;2.45;;;0.85;;
50547;SDS011;38013;48.810;8.818;2022-10-16T10:19:49;1.90;;;0.93;;
50547;SDS011;38013;48.810;8.818;2022-10-16T10:22:27;3.28;;;1.10;;
50547;SDS011;38013;48.810;8.818;2022-10-16T10:36:40;2.33;;;0.85;;
50547;SDS011;38013;48.810;8.818;2022-10-16T10:39:17;4.35;;;1.17;;
50547;SDS011;38013;48.810;8.818;2022-10-16T10:45:14;2.33;;;0.80;;
50547;SDS011;38013;48.810;8.818;2022-10-16T10:48:11;4.50;;;1.00;;
50547;SDS011;38013;48.810;8.818;2022-10-16T10:50:57;3.17;;;1.02;;
50547;SDS011;38013;48.810;8.818;2022-10-16T10:56:59;3.63;;;0.80;;
50547;SDS011;38013;48.810;8.818;2022-10-16T11:02:24;3.63;;;0.80;;
50547;SDS011;38013;48.810;8.818;2022-10-16T11:05:19;3.17;;;0.85;;
50547;SDS011;38013;48.810;8.818;2022-10-16T11:11:07;4.07;;;0.88;;
50547;SDS011;38013;48.810;8.818;2022-10-16T11:16:35;1.98;;;0.77;;
50547;SDS011;38013;48.810;8.818;2022-10-16T11:21:50;4.55;;;1.17;;
50547;SDS011;38013;48.810;8.818;2022-10-16T11:24:59;4.40;;;0.88;;
50547;SDS011;38013;48.810;8.818;2022-10-16T11:27:47;1.85;;;0.77;;
50547;SDS011;38013;48.810;8.818;2022-10-16T11:30:47;3.38;;;0.75;;
50547;SDS011;38013;48.810;8.818;2022-10-16T11:39:02;1.15;;;0.70;;
50547;SDS011;38013;48.810;8.818;2022-10-16T11:41:39;3.13;;;1.00;;
50547;SDS011;38013;48.810;8.818;2022-10-16T11:47:08;3.83;;;0.90;;
50547;SDS011;38013;48.810;8.818;2022-10-16T11:50:00;4.13;;;1.00;;
50547;SDS011;38013;48.810;8.818;2022-10-16T11:52:40;2.65;;;0.80;;
50547;SDS011;38013;48.810;8.818;2022-10-16T11:55:18;3.83;;;1.00;;
50547;SDS011;38013;48.810;8.818;2022-10-16T11:57:53;3.45;;;0.90;;
50547;SDS011;38013;48.810;8.818;2022-10-16T12:00:28;1.88;;;0.70;;
50547;SDS011;38013;48.810;8.818;2022-10-16T12:16:37;6.60;;;1.10;;
50547;SDS011;38013;48.810;8.818;2022-10-16T12:19:11;4.70;;;0.90;;
50547;SDS011;38013;48.810;8.818;2022-10-16T12:21:40;11.20;;;1.55;;
50547;SDS011;38013;48.810;8.818;2022-10-16T12:26:59;1.85;;;0.85;;
50547;SDS011;38013;48.810;8.818;2022-10-16T12:32:05;1.98;;;1.00;;
50547;SDS011;38013;48.810;8.818;2022-10-16T12:34:52;2.83;;;1.00;;
50547;SDS011;38013;48.810;8.818;2022-10-16T12:37:22;3.72;;;0.70;;
50547;SDS011;38013;48.810;8.818;2022-10-16T12:39:52;1.98;;;0.90;;
50547;SDS011;38013;48.810;8.818;2022-10-16T12:44:58;1.45;;;0.82;;
50547;SDS011;38013;48.810;8.818;2022-10-16T12:49:55;1.83;;;0.85;;
50547;SDS011;38013;48.810;8.818;2022-10-16T12:52:23;2.83;;;0.90;;
50547;SDS011;38013;48.810;8.818;2022-10-16T12:54:58;4.25;;;1.08;;
50547;SDS011;38013;48.810;8.818;2022-10-16T12:58:00;3.13;;;0.90;;
50547;SDS011;38013;48.810;8.818;2022-10-16T13:00:35;8.77;;;0.88;;
50547;SDS011;38013;48.810;8.818;2022-10-16T13:09:07;1.88;;;0.77;;
50547;SDS011;38013;48.810;8.818;2022-10-16T13:20:21;3.65;;;0.98;;
50547;SDS011;38013;48.810;8.818;2022-10-16T13:29:03;2.85;;;1.00;;
50547;SDS011;38013;48.810;8.818;2022-10-16T13:31:29;2.70;;;0.85;;
50547;SDS011;38013;48.810;8.818;2022-10-16T13:33:57;2.47;;;0.90;;
50547;SDS011;38013;48.810;8.818;2022-10-16T13:42:12;2.28;;;0.90;;
50547;SDS011;38013;48.810;8.818;2022-10-16T13:44:51;2.88;;;1.00;;
50547;SDS011;38013;48.810;8.818;2022-10-16T13:47:24;8.73;;;1.33;;
50547;SDS011;38013;48.810;8.818;2022-10-16T13:52:38;2.63;;;1.20;;
50547;SDS011;38013;48.810;8.818;2022-10-16T13:55:04;5.15;;;1.17;;
50547;SDS011;38013;48.810;8.818;2022-10-16T13:57:43;1.85;;;0.82;;
50547;SDS011;38013;48.810;8.818;2022-10-16T14:00:23;1.67;;;0.90;;
50547;SDS011;38013;48.810;8.818;2022-10-16T14:03:01;2.60;;;0.88;;
50547;SDS011;38013;48.810;8.818;2022-10-16T14:05:30;5.43;;;0.90;;
50547;SDS011;38013;48.810;8.818;2022-10-16T14:07:57;6.18;;;0.90;;
50547;SDS011;38013;48.810;8.818;2022-10-16T14:10:27;1.88;;;0.90;;
50547;SDS011;38013;48.810;8.818;2022-10-16T14:13:03;1.75;;;0.93;;
50547;SDS011;38013;48.810;8.818;2022-10-16T14:15:31;5.00;;;0.98;;
50547;SDS011;38013;48.810;8.818;2022-10-16T14:17:59;5.63;;;0.77;;
50547;SDS011;38013;48.810;8.818;2022-10-16T14:20:26;4.07;;;1.10;;
50547;SDS011;38013;48.810;8.818;2022-10-16T14:23:56;4.03;;;1.05;;
50547;SDS011;38013;48.810;8.818;2022-10-16T14:26:06;2.67;;;1.00;;
50547;SDS011;38013;48.810;8.818;2022-10-16T14:28:39;3.22;;;1.02;;
50547;SDS011;38013;48.810;8.818;2022-10-16T14:33:44;1.85;;;0.80;;
50547;SDS011;38013;48.810;8.818;2022-10-16T14:38:38;4.45;;;0.90;;
50547;SDS011;38013;48.810;8.818;2022-10-16T14:41:07;3.60;;;0.82;;
50547;SDS011;38013;48.810;8.818;2022-10-16T14:43:34;2.83;;;0.90;;
50547;SDS011;38013;48.810;8.818;2022-10-16T14:46:12;4.53;;;0.93;;
50547;SDS011;38013;48.810;8.818;2022-10-16T14:48:45;2.03;;;0.90;;
50547;SDS011;38013;48.810;8.818;2022-10-16T14:51:15;9.98;;;1.00;;
50547;SDS011;38013;48.810;8.818;2022-10-16T14:53:42;3.88;;;0.98;;
50547;SDS011;38013;48.810;8.818;2022-10-16T14:56:09;4.15;;;1.25;;
50547;SDS011;38013;48.810;8.818;2022-10-16T14:58:44;4.13;;;1.00;;
50547;SDS011;38013;48.810;8.818;2022-10-16T15:01:10;4.82;;;0.90;;
50547;SDS011;38013;48.810;8.818;2022-10-16T15:03:36;2.08;;;1.00;;
50547;SDS011;38013;48.810;8.818;2022-10-16T15:06:09;3.55;;;1.00;;
50547;SDS011;38013;48.810;8.818;2022-10-16T15:08:37;1.42;;;0.80;;
50547;SDS011;38013;48.810;8.818;2022-10-16T15:11:03;3.20;;;0.93;;
50547;SDS011;38013;48.810;8.818;2022-10-16T15:13:29;6.30;;;0.98;;
50547;SDS011;38013;48.810;8.818;2022-10-16T15:15:55;2.08;;;0.90;;
50547;SDS011;38013;48.810;8.818;2022-10-16T15:18:21;3.22;;;1.10;;
50547;SDS011;38013;48.810;8.818;2022-10-16T15:20:49;2.53;;;0.93;;
50547;SDS011;38013;48.810;8.818;2022-10-16T15:23:17;5.22;;;1.00;;
50547;SDS011;38013;48.810;8.818;2022-10-16T15:25:47;2.08;;;1.00;;
50547;SDS011;38013;48.810;8.818;2022-10-16T15:28:19;1.77;;;0.95;;
50547;SDS011;38013;48.810;8.818;2022-10-16T15:30:46;3.20;;;0.93;;
50547;SDS011;38013;48.810;8.818;2022-10-16T15:33:16;4.03;;;1.00;;
50547;SDS011;38013;48.810;8.818;2022-10-16T15:35:48;1.38;;;0.75;;
50547;SDS011;38013;48.810;8.818;2022-10-16T15:38:16;6.97;;;0.80;;
50547;SDS011;38013;48.810;8.818;2022-10-16T15:40:45;3.22;;;1.00;;
50547;SDS011;38013;48.810;8.818;2022-10-16T15:43:11;4.75;;;0.98;;
50547;SDS011;38013;48.810;8.818;2022-10-16T15:45:37;4.55;;;0.88;;
50547;SDS011;38013;48.810;8.818;2022-10-16T15:48:03;4.70;;;1.00;;
50547;SDS011;38013;48.810;8.818;2022-10-16T15:50:30;2.22;;;0.93;;
50547;SDS011;38013;48.810;8.818;2022-10-16T15:52:57;4.20;;;1.20;;
50547;SDS011;38013;48.810;8.818;2022-10-16T15:55:23;4.22;;;1.40;;
50547;SDS011;38013;48.810;8.818;2022-10-16T15:57:49;3.83;;;1.35;;
50547;SDS011;38013;48.810;8.818;2022-10-16T16:00:17;7.03;;;1.55;;
50547;SDS011;38013;48.810;8.818;2022-10-16T16:02:51;3.05;;;1.33;;
50547;SDS011;38013;48.810;8.818;2022-10-16T16:05:18;5.15;;;1.42;;
50547;SDS011;38013;48.810;8.818;2022-10-16T16:07:47;6.00;;;1.70;;
50547;SDS011;38013;48.810;8.818;2022-10-16T16:10:13;6.43;;;2.10;;
50547;SDS011;38013;48.810;8.818;2022-10-16T16:12:39;5.72;;;1.40;;
50547;SDS011;38013;48.810;8.818;2022-10-16T16:15:05;2.88;;;1.40;;
50547;SDS011;38013;48.810;8.818;2022-10-16T16:17:33;3.28;;;1.50;;
50547;SDS011;38013;48.810;8.818;2022-10-16T16:20:00;5.85;;;1.70;;
50547;SDS011;38013;48.810;8.818;2022-10-16T16:22:26;3.03;;;1.40;;
50547;SDS011;38013;48.810;8.818;2022-10-16T16:24:52;4.28;;;1.42;;
50547;SDS011;38013;48.810;8.818;2022-10-16T16:27:18;3.30;;;0.98;;
50547;SDS011;38013;48.810;8.818;2022-10-16T16:29:45;4.20;;;1.27;;
50547;SDS011;38013;48.810;8.818;2022-10-16T16:32:11;5.80;;;3.05;;
50547;SDS011;38013;48.810;8.818;2022-10-16T16:34:37;10.77;;;5.28;;
50547;SDS011;38013;48.810;8.818;2022-10-16T16:37:03;5.75;;;3.05;;
50547;SDS011;38013;48.810;8.818;2022-10-16T16:39:29;13.20;;;7.25;;
50547;SDS011;38013;48.810;8.818;2022-10-16T16:41:55;11.65;;;7.13;;
50547;SDS011;38013;48.810;8.818;2022-10-16T16:44:23;11.38;;;5.70;;
50547;SDS011;38013;48.810;8.818;2022-10-16T16:46:49;11.32;;;4.88;;
50547;SDS011;38013;48.810;8.818;2022-10-16T16:49:15;20.10;;;11.63;;
50547;SDS011;38013;48.810;8.818;2022-10-16T16:51:41;18.48;;;10.68;;
50547;SDS011;38013;48.810;8.818;2022-10-16T16:54:07;14.77;;;8.88;;
50547;SDS011;38013;48.810;8.818;2022-10-16T16:56:35;16.48;;;8.35;;
50547;SDS011;38013;48.810;8.818;2022-10-16T16:59:01;11.95;;;5.25;;
50547;SDS011;38013;48.810;8.818;2022-10-16T17:01:28;7.75;;;4.68;;
50547;SDS011;38013;48.810;8.818;2022-10-16T17:03:55;9.00;;;3.00;;
50547;SDS011;38013;48.810;8.818;2022-10-16T17:06:23;6.00;;;2.70;;
50547;SDS011;38013;48.810;8.818;2022-10-16T17:08:52;5.25;;;2.20;;
50547;SDS011;38013;48.810;8.818;2022-10-16T17:11:20;6.82;;;2.42;;
50547;SDS011;38013;48.810;8.818;2022-10-16T17:16:15;5.38;;;2.10;;
50547;SDS011;38013;48.810;8.818;2022-10-16T17:18:41;6.47;;;2.92;;
50547;SDS011;38013;48.810;8.818;2022-10-16T17:21:08;7.45;;;2.92;;
50547;SDS011;38013;48.810;8.818;2022-10-16T17:23:35;7.78;;;2.95;;